sensor_id;sensor_type;location;lat;lon;timestamp;temperature;humidity
24618;DHT22;12762;51.730;5.356;2022-11-23T00:00:35;9.60;91.60
24618;DHT22;12762;51.730;5.356;2022-11-23T00:03:01;9.60;91.60
24618;DHT22;12762;51.730;5.356;2022-11-23T00:05:29;9.60;91.60
24618;DHT22;12762;51.730;5.356;2022-11-23T00:07:56;9.60;91.60
24618;DHT22;12762;51.730;5.356;2022-11-23T00:10:23;9.60;91.60
24618;DHT22;12762;51.730;5.356;2022-11-23T00:12:50;9.60;91.60
24618;DHT22;12762;51.730;5.356;2022-11-23T00:15:17;9.60;91.60
24618;DHT22;12762;51.730;5.356;2022-11-23T00:17:46;9.60;91.60
24618;DHT22;12762;51.730;5.356;2022-11-23T00:20:13;9.60;91.60
24618;DHT22;12762;51.730;5.356;2022-11-23T00:22:40;9.60;91.60
24618;DHT22;12762;51.730;5.356;2022-11-23T00:25:07;9.60;91.60
24618;DHT22;12762;51.730;5.356;2022-11-23T00:27:34;9.60;91.60
24618;DHT22;12762;51.730;5.356;2022-11-23T00:30:01;9.70;91.60
24618;DHT22;12762;51.730;5.356;2022-11-23T00:32:28;9.70;91.70
24618;DHT22;12762;51.730;5.356;2022-11-23T00:34:55;9.70;91.60
24618;DHT22;12762;51.730;5.356;2022-11-23T00:37:22;9.70;91.70
24618;DHT22;12762;51.730;5.356;2022-11-23T00:39:49;9.70;91.60
24618;DHT22;12762;51.730;5.356;2022-11-23T00:42:17;9.70;91.60
24618;DHT22;12762;51.730;5.356;2022-11-23T00:44:47;9.70;91.60
24618;DHT22;12762;51.730;5.356;2022-11-23T00:47:14;9.70;91.60
24618;DHT22;12762;51.730;5.356;2022-11-23T00:49:40;9.70;91.60
24618;DHT22;12762;51.730;5.356;2022-11-23T00:52:07;9.70;91.60
24618;DHT22;12762;51.730;5.356;2022-11-23T00:54:34;9.70;91.60
24618;DHT22;12762;51.730;5.356;2022-11-23T00:57:00;9.70;91.60
24618;DHT22;12762;51.730;5.356;2022-11-23T00:59:27;9.70;91.60
24618;DHT22;12762;51.730;5.356;2022-11-23T01:01:55;9.70;91.60
24618;DHT22;12762;51.730;5.356;2022-11-23T01:04:24;9.70;91.60
24618;DHT22;12762;51.730;5.356;2022-11-23T01:06:55;9.60;91.50
24618;DHT22;12762;51.730;5.356;2022-11-23T01:09:23;9.60;91.50
24618;DHT22;12762;51.730;5.356;2022-11-23T01:11:52;9.60;91.50
24618;DHT22;12762;51.730;5.356;2022-11-23T01:14:20;9.60;91.60
24618;DHT22;12762;51.730;5.356;2022-11-23T01:16:48;9.60;91.50
24618;DHT22;12762;51.730;5.356;2022-11-23T01:19:19;9.60;91.50
24618;DHT22;12762;51.730;5.356;2022-11-23T01:21:46;9.60;91.50
24618;DHT22;12762;51.730;5.356;2022-11-23T01:24:19;9.60;91.50
24618;DHT22;12762;51.730;5.356;2022-11-23T01:26:50;9.60;91.50
24618;DHT22;12762;51.730;5.356;2022-11-23T01:29:18;9.60;91.50
24618;DHT22;12762;51.730;5.356;2022-11-23T01:31:45;9.60;91.50
24618;DHT22;12762;51.730;5.356;2022-11-23T01:34:13;9.60;91.60
24618;DHT22;12762;51.730;5.356;2022-11-23T01:36:40;9.60;91.60
24618;DHT22;12762;51.730;5.356;2022-11-23T01:39:07;9.60;91.60
24618;DHT22;12762;51.730;5.356;2022-11-23T01:41:38;9.60;91.60
24618;DHT22;12762;51.730;5.356;2022-11-23T01:44:29;9.60;91.60
24618;DHT22;12762;51.730;5.356;2022-11-23T01:47:08;9.60;91.50
24618;DHT22;12762;51.730;5.356;2022-11-23T01:49:38;9.60;91.50
24618;DHT22;12762;51.730;5.356;2022-11-23T01:52:11;9.60;91.50
24618;DHT22;12762;51.730;5.356;2022-11-23T01:54:50;9.60;91.50
24618;DHT22;12762;51.730;5.356;2022-11-23T01:57:21;9.60;91.40
24618;DHT22;12762;51.730;5.356;2022-11-23T01:59:50;9.60;91.50
24618;DHT22;12762;51.730;5.356;2022-11-23T02:02:17;9.60;91.80
24618;DHT22;12762;51.730;5.356;2022-11-23T02:04:46;9.70;91.50
24618;DHT22;12762;51.730;5.356;2022-11-23T02:07:16;9.70;91.40
24618;DHT22;12762;51.730;5.356;2022-11-23T02:09:44;9.70;91.40
24618;DHT22;12762;51.730;5.356;2022-11-23T02:12:15;9.70;91.40
24618;DHT22;12762;51.730;5.356;2022-11-23T02:14:42;9.70;91.40
24618;DHT22;12762;51.730;5.356;2022-11-23T02:17:09;9.70;91.30
24618;DHT22;12762;51.730;5.356;2022-11-23T02:19:39;9.70;91.70
24618;DHT22;12762;51.730;5.356;2022-11-23T02:22:12;9.70;91.30
24618;DHT22;12762;51.730;5.356;2022-11-23T02:24:47;9.70;91.20
24618;DHT22;12762;51.730;5.356;2022-11-23T02:27:15;9.70;91.20
24618;DHT22;12762;51.730;5.356;2022-11-23T02:29:42;9.70;91.10
24618;DHT22;12762;51.730;5.356;2022-11-23T02:32:18;9.60;91.10
24618;DHT22;12762;51.730;5.356;2022-11-23T02:34:45;9.60;91.00
24618;DHT22;12762;51.730;5.356;2022-11-23T02:37:13;9.60;91.00
24618;DHT22;12762;51.730;5.356;2022-11-23T02:39:43;9.60;91.00
24618;DHT22;12762;51.730;5.356;2022-11-23T02:42:13;9.60;91.10
24618;DHT22;12762;51.730;5.356;2022-11-23T02:47:13;9.50;91.00
24618;DHT22;12762;51.730;5.356;2022-11-23T02:49:43;9.50;91.10
24618;DHT22;12762;51.730;5.356;2022-11-23T02:52:11;9.60;91.10
24618;DHT22;12762;51.730;5.356;2022-11-23T02:54:38;9.60;91.10
24618;DHT22;12762;51.730;5.356;2022-11-23T02:57:05;9.50;91.10
24618;DHT22;12762;51.730;5.356;2022-11-23T02:59:32;9.60;91.10
24618;DHT22;12762;51.730;5.356;2022-11-23T03:02:01;9.60;91.10
24618;DHT22;12762;51.730;5.356;2022-11-23T03:04:29;9.60;91.10
24618;DHT22;12762;51.730;5.356;2022-11-23T03:06:56;9.60;91.10
24618;DHT22;12762;51.730;5.356;2022-11-23T03:09:24;9.60;91.10
24618;DHT22;12762;51.730;5.356;2022-11-23T03:11:52;9.60;91.10
24618;DHT22;12762;51.730;5.356;2022-11-23T03:14:20;9.60;91.10
24618;DHT22;12762;51.730;5.356;2022-11-23T03:16:47;9.60;91.10
24618;DHT22;12762;51.730;5.356;2022-11-23T03:19:14;9.60;91.10
24618;DHT22;12762;51.730;5.356;2022-11-23T03:21:41;9.60;91.00
24618;DHT22;12762;51.730;5.356;2022-11-23T03:24:07;9.70;91.10
24618;DHT22;12762;51.730;5.356;2022-11-23T03:26:34;9.70;91.10
24618;DHT22;12762;51.730;5.356;2022-11-23T03:29:01;9.70;91.00
24618;DHT22;12762;51.730;5.356;2022-11-23T03:31:28;9.70;91.00
24618;DHT22;12762;51.730;5.356;2022-11-23T03:33:55;9.70;91.00
24618;DHT22;12762;51.730;5.356;2022-11-23T03:36:21;9.70;91.00
24618;DHT22;12762;51.730;5.356;2022-11-23T03:38:48;9.70;91.00
24618;DHT22;12762;51.730;5.356;2022-11-23T03:41:15;9.70;90.90
24618;DHT22;12762;51.730;5.356;2022-11-23T03:43:42;9.70;91.00
24618;DHT22;12762;51.730;5.356;2022-11-23T03:46:09;9.70;90.90
24618;DHT22;12762;51.730;5.356;2022-11-23T03:48:35;9.70;90.90
24618;DHT22;12762;51.730;5.356;2022-11-23T03:51:02;9.70;90.90
24618;DHT22;12762;51.730;5.356;2022-11-23T03:53:32;9.70;90.90
24618;DHT22;12762;51.730;5.356;2022-11-23T03:55:59;9.70;90.90
24618;DHT22;12762;51.730;5.356;2022-11-23T03:58:26;9.70;90.90
24618;DHT22;12762;51.730;5.356;2022-11-23T04:00:53;9.70;90.90
24618;DHT22;12762;51.730;5.356;2022-11-23T04:03:20;9.70;90.90
24618;DHT22;12762;51.730;5.356;2022-11-23T04:05:49;9.70;90.90
24618;DHT22;12762;51.730;5.356;2022-11-23T04:08:16;9.70;90.90
24618;DHT22;12762;51.730;5.356;2022-11-23T04:10:43;9.70;90.90
24618;DHT22;12762;51.730;5.356;2022-11-23T04:13:09;9.70;90.80
24618;DHT22;12762;51.730;5.356;2022-11-23T04:15:36;9.70;90.90
24618;DHT22;12762;51.730;5.356;2022-11-23T04:18:03;9.70;90.80
24618;DHT22;12762;51.730;5.356;2022-11-23T04:20:30;9.70;90.90
24618;DHT22;12762;51.730;5.356;2022-11-23T04:22:57;9.70;90.90
24618;DHT22;12762;51.730;5.356;2022-11-23T04:25:23;9.70;90.80
24618;DHT22;12762;51.730;5.356;2022-11-23T04:27:50;9.70;90.80
24618;DHT22;12762;51.730;5.356;2022-11-23T04:30:20;9.70;90.80
24618;DHT22;12762;51.730;5.356;2022-11-23T04:32:47;9.70;90.80
24618;DHT22;12762;51.730;5.356;2022-11-23T04:35:14;9.70;90.80
24618;DHT22;12762;51.730;5.356;2022-11-23T04:37:41;9.70;90.80
24618;DHT22;12762;51.730;5.356;2022-11-23T04:40:08;9.60;90.70
24618;DHT22;12762;51.730;5.356;2022-11-23T04:42:38;9.70;91.10
24618;DHT22;12762;51.730;5.356;2022-11-23T04:45:05;9.70;90.80
24618;DHT22;12762;51.730;5.356;2022-11-23T04:47:34;9.60;90.70
24618;DHT22;12762;51.730;5.356;2022-11-23T04:50:01;9.60;90.70
24618;DHT22;12762;51.730;5.356;2022-11-23T04:52:28;9.60;90.70
24618;DHT22;12762;51.730;5.356;2022-11-23T04:54:55;9.60;90.70
24618;DHT22;12762;51.730;5.356;2022-11-23T04:57:22;9.60;90.70
24618;DHT22;12762;51.730;5.356;2022-11-23T04:59:48;9.60;90.70
24618;DHT22;12762;51.730;5.356;2022-11-23T05:02:15;9.60;90.60
24618;DHT22;12762;51.730;5.356;2022-11-23T05:04:54;9.60;90.60
24618;DHT22;12762;51.730;5.356;2022-11-23T05:07:21;9.60;90.60
24618;DHT22;12762;51.730;5.356;2022-11-23T05:09:48;9.60;90.60
24618;DHT22;12762;51.730;5.356;2022-11-23T05:12:15;9.60;90.60
24618;DHT22;12762;51.730;5.356;2022-11-23T05:14:42;9.60;90.60
24618;DHT22;12762;51.730;5.356;2022-11-23T05:17:08;9.60;90.50
24618;DHT22;12762;51.730;5.356;2022-11-23T05:19:35;9.60;90.50
24618;DHT22;12762;51.730;5.356;2022-11-23T05:22:02;9.60;90.50
24618;DHT22;12762;51.730;5.356;2022-11-23T05:24:29;9.60;90.50
24618;DHT22;12762;51.730;5.356;2022-11-23T05:26:55;9.60;90.50
24618;DHT22;12762;51.730;5.356;2022-11-23T05:29:23;9.60;90.50
24618;DHT22;12762;51.730;5.356;2022-11-23T05:31:49;9.60;90.50
24618;DHT22;12762;51.730;5.356;2022-11-23T05:34:16;9.60;90.50
24618;DHT22;12762;51.730;5.356;2022-11-23T05:36:43;9.60;90.50
24618;DHT22;12762;51.730;5.356;2022-11-23T05:39:10;9.60;90.40
24618;DHT22;12762;51.730;5.356;2022-11-23T05:41:37;9.60;90.40
24618;DHT22;12762;51.730;5.356;2022-11-23T05:44:04;9.50;90.40
24618;DHT22;12762;51.730;5.356;2022-11-23T05:46:30;9.50;90.30
24618;DHT22;12762;51.730;5.356;2022-11-23T05:48:57;9.50;90.30
24618;DHT22;12762;51.730;5.356;2022-11-23T05:51:24;9.50;90.30
24618;DHT22;12762;51.730;5.356;2022-11-23T05:53:51;9.50;90.30
24618;DHT22;12762;51.730;5.356;2022-11-23T05:56:18;9.50;90.30
24618;DHT22;12762;51.730;5.356;2022-11-23T05:58:44;9.40;90.20
24618;DHT22;12762;51.730;5.356;2022-11-23T06:01:11;9.40;90.20
24618;DHT22;12762;51.730;5.356;2022-11-23T06:03:40;9.40;90.20
24618;DHT22;12762;51.730;5.356;2022-11-23T06:06:07;9.40;90.20
24618;DHT22;12762;51.730;5.356;2022-11-23T06:08:34;9.40;90.10
24618;DHT22;12762;51.730;5.356;2022-11-23T06:11:01;9.40;90.10
24618;DHT22;12762;51.730;5.356;2022-11-23T06:13:28;9.40;90.10
24618;DHT22;12762;51.730;5.356;2022-11-23T06:15:56;9.40;90.10
24618;DHT22;12762;51.730;5.356;2022-11-23T06:18:22;9.30;90.00
24618;DHT22;12762;51.730;5.356;2022-11-23T06:20:49;9.30;90.00
24618;DHT22;12762;51.730;5.356;2022-11-23T06:23:16;9.30;90.00
24618;DHT22;12762;51.730;5.356;2022-11-23T06:25:43;9.30;90.00
24618;DHT22;12762;51.730;5.356;2022-11-23T06:28:10;9.30;90.00
24618;DHT22;12762;51.730;5.356;2022-11-23T06:30:36;9.30;90.00
24618;DHT22;12762;51.730;5.356;2022-11-23T06:33:03;9.30;90.00
24618;DHT22;12762;51.730;5.356;2022-11-23T06:35:30;9.30;90.00
24618;DHT22;12762;51.730;5.356;2022-11-23T06:37:57;9.20;90.00
24618;DHT22;12762;51.730;5.356;2022-11-23T06:40:24;9.30;90.00
24618;DHT22;12762;51.730;5.356;2022-11-23T06:42:51;9.20;89.90
24618;DHT22;12762;51.730;5.356;2022-11-23T06:45:23;9.20;89.90
24618;DHT22;12762;51.730;5.356;2022-11-23T06:47:53;9.20;89.80
24618;DHT22;12762;51.730;5.356;2022-11-23T06:50:24;9.20;89.80
24618;DHT22;12762;51.730;5.356;2022-11-23T06:52:55;9.20;89.70
24618;DHT22;12762;51.730;5.356;2022-11-23T06:55:25;9.20;89.70
24618;DHT22;12762;51.730;5.356;2022-11-23T06:57:52;9.20;89.70
24618;DHT22;12762;51.730;5.356;2022-11-23T07:00:19;9.20;89.70
24618;DHT22;12762;51.730;5.356;2022-11-23T07:02:53;9.20;89.70
24618;DHT22;12762;51.730;5.356;2022-11-23T07:05:23;9.20;89.70
24618;DHT22;12762;51.730;5.356;2022-11-23T07:07:50;9.20;89.70
24618;DHT22;12762;51.730;5.356;2022-11-23T07:10:20;9.10;89.60
24618;DHT22;12762;51.730;5.356;2022-11-23T07:12:53;9.10;89.70
24618;DHT22;12762;51.730;5.356;2022-11-23T07:15:20;9.10;89.60
24618;DHT22;12762;51.730;5.356;2022-11-23T07:17:50;9.10;89.70
24618;DHT22;12762;51.730;5.356;2022-11-23T07:20:17;9.10;89.70
24618;DHT22;12762;51.730;5.356;2022-11-23T07:22:44;9.10;89.70
24618;DHT22;12762;51.730;5.356;2022-11-23T07:25:10;9.10;89.80
24618;DHT22;12762;51.730;5.356;2022-11-23T07:27:42;9.10;89.80
24618;DHT22;12762;51.730;5.356;2022-11-23T07:30:09;9.10;89.80
24618;DHT22;12762;51.730;5.356;2022-11-23T07:32:36;9.10;89.90
24618;DHT22;12762;51.730;5.356;2022-11-23T07:35:03;9.10;90.30
24618;DHT22;12762;51.730;5.356;2022-11-23T07:37:30;9.10;89.90
24618;DHT22;12762;51.730;5.356;2022-11-23T07:39:56;9.10;89.90
24618;DHT22;12762;51.730;5.356;2022-11-23T07:42:24;9.10;89.70
24618;DHT22;12762;51.730;5.356;2022-11-23T07:45:07;9.10;89.70
24618;DHT22;12762;51.730;5.356;2022-11-23T07:47:37;9.10;89.60
24618;DHT22;12762;51.730;5.356;2022-11-23T07:50:06;9.20;89.70
24618;DHT22;12762;51.730;5.356;2022-11-23T07:52:35;9.20;89.50
24618;DHT22;12762;51.730;5.356;2022-11-23T07:55:02;9.20;89.50
24618;DHT22;12762;51.730;5.356;2022-11-23T07:57:29;9.20;89.30
24618;DHT22;12762;51.730;5.356;2022-11-23T07:59:56;9.30;89.40
24618;DHT22;12762;51.730;5.356;2022-11-23T08:02:23;9.30;89.20
24618;DHT22;12762;51.730;5.356;2022-11-23T08:04:50;9.40;89.20
24618;DHT22;12762;51.730;5.356;2022-11-23T08:07:17;9.40;89.10
24618;DHT22;12762;51.730;5.356;2022-11-23T08:09:44;9.40;88.90
24618;DHT22;12762;51.730;5.356;2022-11-23T08:12:10;9.40;88.70
24618;DHT22;12762;51.730;5.356;2022-11-23T08:14:37;9.40;88.50
24618;DHT22;12762;51.730;5.356;2022-11-23T08:17:04;9.40;88.30
24618;DHT22;12762;51.730;5.356;2022-11-23T08:19:31;9.40;88.10
24618;DHT22;12762;51.730;5.356;2022-11-23T08:21:57;9.40;88.30
24618;DHT22;12762;51.730;5.356;2022-11-23T08:24:24;9.40;88.20
24618;DHT22;12762;51.730;5.356;2022-11-23T08:26:51;9.40;87.90
24618;DHT22;12762;51.730;5.356;2022-11-23T08:29:18;9.40;87.90
24618;DHT22;12762;51.730;5.356;2022-11-23T08:31:45;9.40;87.90
24618;DHT22;12762;51.730;5.356;2022-11-23T08:34:11;9.60;88.30
24618;DHT22;12762;51.730;5.356;2022-11-23T08:36:42;10.20;87.50
24618;DHT22;12762;51.730;5.356;2022-11-23T08:39:09;10.90;87.10
24618;DHT22;12762;51.730;5.356;2022-11-23T08:41:37;11.50;85.60
24618;DHT22;12762;51.730;5.356;2022-11-23T08:44:04;12.00;84.10
24618;DHT22;12762;51.730;5.356;2022-11-23T08:46:31;12.20;82.80
24618;DHT22;12762;51.730;5.356;2022-11-23T08:48:57;12.50;82.60
24618;DHT22;12762;51.730;5.356;2022-11-23T08:51:24;12.70;81.00
24618;DHT22;12762;51.730;5.356;2022-11-23T08:53:51;12.80;79.70
24618;DHT22;12762;51.730;5.356;2022-11-23T08:56:20;12.70;79.50
24618;DHT22;12762;51.730;5.356;2022-11-23T08:58:47;12.40;79.40
24618;DHT22;12762;51.730;5.356;2022-11-23T09:01:17;12.00;79.20
24618;DHT22;12762;51.730;5.356;2022-11-23T09:03:44;11.60;78.90
24618;DHT22;12762;51.730;5.356;2022-11-23T09:06:11;11.30;79.70
24618;DHT22;12762;51.730;5.356;2022-11-23T09:08:38;11.10;80.20
24618;DHT22;12762;51.730;5.356;2022-11-23T09:11:10;10.80;80.20
24618;DHT22;12762;51.730;5.356;2022-11-23T09:13:38;10.60;80.60
24618;DHT22;12762;51.730;5.356;2022-11-23T09:16:05;10.50;81.20
24618;DHT22;12762;51.730;5.356;2022-11-23T09:18:33;10.40;81.30
24618;DHT22;12762;51.730;5.356;2022-11-23T09:21:04;10.30;81.60
24618;DHT22;12762;51.730;5.356;2022-11-23T09:23:32;10.30;81.90
24618;DHT22;12762;51.730;5.356;2022-11-23T09:26:00;10.30;82.20
24618;DHT22;12762;51.730;5.356;2022-11-23T09:28:28;10.30;82.00
24618;DHT22;12762;51.730;5.356;2022-11-23T09:30:55;10.30;82.40
24618;DHT22;12762;51.730;5.356;2022-11-23T09:33:23;10.30;82.40
24618;DHT22;12762;51.730;5.356;2022-11-23T09:38:27;10.30;82.00
24618;DHT22;12762;51.730;5.356;2022-11-23T09:46:40;10.30;82.10
24618;DHT22;12762;51.730;5.356;2022-11-23T09:49:16;10.40;82.30
24618;DHT22;12762;51.730;5.356;2022-11-23T09:51:47;10.40;82.10
24618;DHT22;12762;51.730;5.356;2022-11-23T09:54:36;10.50;82.20
24618;DHT22;12762;51.730;5.356;2022-11-23T09:57:04;10.50;82.10
24618;DHT22;12762;51.730;5.356;2022-11-23T10:00:05;10.60;82.00
24618;DHT22;12762;51.730;5.356;2022-11-23T10:02:38;10.60;82.00
24618;DHT22;12762;51.730;5.356;2022-11-23T10:05:06;10.60;82.00
24618;DHT22;12762;51.730;5.356;2022-11-23T10:08:00;10.60;81.70
24618;DHT22;12762;51.730;5.356;2022-11-23T10:10:44;10.70;81.70
24618;DHT22;12762;51.730;5.356;2022-11-23T10:13:44;10.70;81.80
24618;DHT22;12762;51.730;5.356;2022-11-23T10:16:35;10.70;81.30
24618;DHT22;12762;51.730;5.356;2022-11-23T10:19:15;10.70;81.40
24618;DHT22;12762;51.730;5.356;2022-11-23T10:21:57;10.70;81.10
24618;DHT22;12762;51.730;5.356;2022-11-23T10:24:32;10.80;81.50
24618;DHT22;12762;51.730;5.356;2022-11-23T10:27:01;10.80;81.40
24618;DHT22;12762;51.730;5.356;2022-11-23T10:29:32;10.90;81.40
24618;DHT22;12762;51.730;5.356;2022-11-23T10:32:00;10.90;81.20
24618;DHT22;12762;51.730;5.356;2022-11-23T10:34:48;10.90;80.80
24618;DHT22;12762;51.730;5.356;2022-11-23T10:37:20;10.90;80.80
24618;DHT22;12762;51.730;5.356;2022-11-23T10:39:47;10.90;80.40
24618;DHT22;12762;51.730;5.356;2022-11-23T10:42:35;10.90;80.30
24618;DHT22;12762;51.730;5.356;2022-11-23T10:45:04;10.90;80.30
24618;DHT22;12762;51.730;5.356;2022-11-23T10:47:39;11.00;80.20
24618;DHT22;12762;51.730;5.356;2022-11-23T10:50:27;11.00;80.00
24618;DHT22;12762;51.730;5.356;2022-11-23T10:53:22;11.00;80.20
24618;DHT22;12762;51.730;5.356;2022-11-23T10:55:54;11.10;80.30
24618;DHT22;12762;51.730;5.356;2022-11-23T10:58:29;11.10;79.80
24618;DHT22;12762;51.730;5.356;2022-11-23T11:03:32;11.20;79.60
24618;DHT22;12762;51.730;5.356;2022-11-23T11:06:00;11.10;79.40
24618;DHT22;12762;51.730;5.356;2022-11-23T11:08:51;11.10;79.30
24618;DHT22;12762;51.730;5.356;2022-11-23T11:11:33;11.00;79.20
24618;DHT22;12762;51.730;5.356;2022-11-23T11:14:20;11.00;79.50
24618;DHT22;12762;51.730;5.356;2022-11-23T11:16:52;11.00;79.20
24618;DHT22;12762;51.730;5.356;2022-11-23T11:19:27;11.00;79.60
24618;DHT22;12762;51.730;5.356;2022-11-23T11:21:56;11.00;79.60
24618;DHT22;12762;51.730;5.356;2022-11-23T11:24:43;11.10;79.50
24618;DHT22;12762;51.730;5.356;2022-11-23T11:27:20;11.10;79.30
24618;DHT22;12762;51.730;5.356;2022-11-23T11:29:50;11.10;79.20
24618;DHT22;12762;51.730;5.356;2022-11-23T11:32:40;11.10;79.30
24618;DHT22;12762;51.730;5.356;2022-11-23T11:38:25;11.10;79.10
24618;DHT22;12762;51.730;5.356;2022-11-23T11:40:57;11.10;79.20
24618;DHT22;12762;51.730;5.356;2022-11-23T11:43:30;11.10;79.30
24618;DHT22;12762;51.730;5.356;2022-11-23T11:49:05;11.30;79.40
24618;DHT22;12762;51.730;5.356;2022-11-23T11:51:37;11.40;79.00
24618;DHT22;12762;51.730;5.356;2022-11-23T11:54:14;11.40;78.70
24618;DHT22;12762;51.730;5.356;2022-11-23T11:56:44;11.50;78.60
24618;DHT22;12762;51.730;5.356;2022-11-23T11:59:28;11.60;78.70
24618;DHT22;12762;51.730;5.356;2022-11-23T12:02:35;11.60;78.10
24618;DHT22;12762;51.730;5.356;2022-11-23T12:10:23;11.70;78.00
24618;DHT22;12762;51.730;5.356;2022-11-23T12:12:51;11.70;78.00
24618;DHT22;12762;51.730;5.356;2022-11-23T12:15:33;11.70;77.90
24618;DHT22;12762;51.730;5.356;2022-11-23T12:19:18;11.70;77.80
24618;DHT22;12762;51.730;5.356;2022-11-23T12:24:42;11.80;77.60
24618;DHT22;12762;51.730;5.356;2022-11-23T12:27:35;11.90;77.70
24618;DHT22;12762;51.730;5.356;2022-11-23T12:31:07;11.90;77.20
24618;DHT22;12762;51.730;5.356;2022-11-23T12:42:06;12.10;77.00
24618;DHT22;12762;51.730;5.356;2022-11-23T12:50:34;12.10;76.10
24618;DHT22;12762;51.730;5.356;2022-11-23T12:56:19;12.00;76.20
24618;DHT22;12762;51.730;5.356;2022-11-23T12:58:51;12.00;76.50
24618;DHT22;12762;51.730;5.356;2022-11-23T13:01:28;11.90;76.30
24618;DHT22;12762;51.730;5.356;2022-11-23T13:21:46;11.90;76.30
24618;DHT22;12762;51.730;5.356;2022-11-23T13:25:01;12.00;76.00
24618;DHT22;12762;51.730;5.356;2022-11-23T13:33:00;11.90;75.80
24618;DHT22;12762;51.730;5.356;2022-11-23T13:40:34;11.80;75.30
24618;DHT22;12762;51.730;5.356;2022-11-23T13:43:18;11.80;75.50
24618;DHT22;12762;51.730;5.356;2022-11-23T13:48:47;11.70;75.40
24618;DHT22;12762;51.730;5.356;2022-11-23T13:51:34;11.50;75.30
24618;DHT22;12762;51.730;5.356;2022-11-23T13:54:05;11.40;75.80
24618;DHT22;12762;51.730;5.356;2022-11-23T13:56:44;11.30;76.30
24618;DHT22;12762;51.730;5.356;2022-11-23T14:04:36;11.00;77.10
24618;DHT22;12762;51.730;5.356;2022-11-23T14:10:15;10.80;77.60
24618;DHT22;12762;51.730;5.356;2022-11-23T14:12:44;10.70;77.80
24618;DHT22;12762;51.730;5.356;2022-11-23T14:15:19;10.60;78.10
24618;DHT22;12762;51.730;5.356;2022-11-23T14:26:46;10.40;79.00
24618;DHT22;12762;51.730;5.356;2022-11-23T14:40:29;10.20;79.90
24618;DHT22;12762;51.730;5.356;2022-11-23T14:43:03;10.10;80.10
24618;DHT22;12762;51.730;5.356;2022-11-23T14:45:32;10.10;80.30
24618;DHT22;12762;51.730;5.356;2022-11-23T14:48:24;10.10;80.50
24618;DHT22;12762;51.730;5.356;2022-11-23T14:50:58;10.00;80.40
24618;DHT22;12762;51.730;5.356;2022-11-23T14:53:32;10.00;80.70
24618;DHT22;12762;51.730;5.356;2022-11-23T14:56:00;10.00;80.90
24618;DHT22;12762;51.730;5.356;2022-11-23T14:58:30;10.00;81.20
24618;DHT22;12762;51.730;5.356;2022-11-23T15:01:01;10.00;81.20
24618;DHT22;12762;51.730;5.356;2022-11-23T15:03:30;9.90;82.40
24618;DHT22;12762;51.730;5.356;2022-11-23T15:06:17;9.90;82.60
24618;DHT22;12762;51.730;5.356;2022-11-23T15:11:35;9.90;82.70
24618;DHT22;12762;51.730;5.356;2022-11-23T15:14:20;9.90;82.90
24618;DHT22;12762;51.730;5.356;2022-11-23T15:16:50;9.90;83.00
24618;DHT22;12762;51.730;5.356;2022-11-23T15:19:27;9.80;83.00
24618;DHT22;12762;51.730;5.356;2022-11-23T15:21:55;9.80;83.10
24618;DHT22;12762;51.730;5.356;2022-11-23T15:24:24;9.90;83.40
24618;DHT22;12762;51.730;5.356;2022-11-23T15:26:52;9.90;83.50
24618;DHT22;12762;51.730;5.356;2022-11-23T15:29:36;9.80;83.40
24618;DHT22;12762;51.730;5.356;2022-11-23T15:32:21;9.80;83.50
24618;DHT22;12762;51.730;5.356;2022-11-23T15:35:04;9.80;83.60
24618;DHT22;12762;51.730;5.356;2022-11-23T15:37:40;9.80;83.70
24618;DHT22;12762;51.730;5.356;2022-11-23T15:40:14;9.70;83.70
24618;DHT22;12762;51.730;5.356;2022-11-23T15:42:43;9.70;83.80
24618;DHT22;12762;51.730;5.356;2022-11-23T15:48:21;9.70;83.90
24618;DHT22;12762;51.730;5.356;2022-11-23T15:51:02;9.70;84.20
24618;DHT22;12762;51.730;5.356;2022-11-23T15:53:48;9.70;84.20
24618;DHT22;12762;51.730;5.356;2022-11-23T15:58:52;9.60;84.30
24618;DHT22;12762;51.730;5.356;2022-11-23T16:01:20;9.60;84.40
24618;DHT22;12762;51.730;5.356;2022-11-23T16:03:52;9.60;84.40
24618;DHT22;12762;51.730;5.356;2022-11-23T16:06:27;9.60;84.60
24618;DHT22;12762;51.730;5.356;2022-11-23T16:08:58;9.60;84.70
24618;DHT22;12762;51.730;5.356;2022-11-23T16:11:32;9.60;84.80
24618;DHT22;12762;51.730;5.356;2022-11-23T16:14:15;9.60;84.80
24618;DHT22;12762;51.730;5.356;2022-11-23T16:16:43;9.60;84.90
24618;DHT22;12762;51.730;5.356;2022-11-23T16:19:44;9.60;85.00
24618;DHT22;12762;51.730;5.356;2022-11-23T16:22:33;9.60;85.00
24618;DHT22;12762;51.730;5.356;2022-11-23T16:25:08;9.60;85.30
24618;DHT22;12762;51.730;5.356;2022-11-23T16:27:41;9.60;85.30
24618;DHT22;12762;51.730;5.356;2022-11-23T16:30:25;9.60;85.60
24618;DHT22;12762;51.730;5.356;2022-11-23T16:32:57;9.50;85.30
24618;DHT22;12762;51.730;5.356;2022-11-23T16:35:24;9.50;85.40
24618;DHT22;12762;51.730;5.356;2022-11-23T16:37:50;9.50;85.50
24618;DHT22;12762;51.730;5.356;2022-11-23T16:40:17;9.50;85.60
24618;DHT22;12762;51.730;5.356;2022-11-23T16:42:44;9.50;85.70
24618;DHT22;12762;51.730;5.356;2022-11-23T16:45:12;9.50;85.80
24618;DHT22;12762;51.730;5.356;2022-11-23T16:48:00;9.50;86.00
24618;DHT22;12762;51.730;5.356;2022-11-23T16:50:31;9.60;86.10
24618;DHT22;12762;51.730;5.356;2022-11-23T16:53:12;9.60;86.20
24618;DHT22;12762;51.730;5.356;2022-11-23T16:55:39;9.60;86.10
24618;DHT22;12762;51.730;5.356;2022-11-23T16:58:13;9.60;86.00
24618;DHT22;12762;51.730;5.356;2022-11-23T17:00:40;9.60;86.10
24618;DHT22;12762;51.730;5.356;2022-11-23T17:03:13;9.50;86.20
24618;DHT22;12762;51.730;5.356;2022-11-23T17:05:45;9.50;86.00
24618;DHT22;12762;51.730;5.356;2022-11-23T17:08:12;9.50;86.10
24618;DHT22;12762;51.730;5.356;2022-11-23T17:10:47;9.50;86.30
24618;DHT22;12762;51.730;5.356;2022-11-23T17:13:24;9.50;86.30
24618;DHT22;12762;51.730;5.356;2022-11-23T17:15:52;9.50;86.30
24618;DHT22;12762;51.730;5.356;2022-11-23T17:18:22;9.50;86.40
24618;DHT22;12762;51.730;5.356;2022-11-23T17:20:49;9.50;86.40
24618;DHT22;12762;51.730;5.356;2022-11-23T17:23:16;9.50;86.50
24618;DHT22;12762;51.730;5.356;2022-11-23T17:25:43;9.50;86.50
24618;DHT22;12762;51.730;5.356;2022-11-23T17:28:14;9.50;86.60
24618;DHT22;12762;51.730;5.356;2022-11-23T17:30:41;9.50;86.70
24618;DHT22;12762;51.730;5.356;2022-11-23T17:33:10;9.50;86.70
24618;DHT22;12762;51.730;5.356;2022-11-23T17:35:37;9.50;86.80
24618;DHT22;12762;51.730;5.356;2022-11-23T17:38:06;9.50;86.80
24618;DHT22;12762;51.730;5.356;2022-11-23T17:40:37;9.50;86.80
24618;DHT22;12762;51.730;5.356;2022-11-23T17:43:04;9.50;86.90
24618;DHT22;12762;51.730;5.356;2022-11-23T17:45:31;9.50;86.80
24618;DHT22;12762;51.730;5.356;2022-11-23T17:47:58;9.50;87.00
24618;DHT22;12762;51.730;5.356;2022-11-23T17:50:29;9.50;87.20
24618;DHT22;12762;51.730;5.356;2022-11-23T17:52:56;9.50;87.10
24618;DHT22;12762;51.730;5.356;2022-11-23T17:55:23;9.50;87.20
24618;DHT22;12762;51.730;5.356;2022-11-23T17:57:52;9.50;87.20
24618;DHT22;12762;51.730;5.356;2022-11-23T18:00:21;9.50;87.20